首页
METAR-TAF:

METAR-TAF

机场 :

康斯坦察, 罗马尼亚

纬度: 44-20N, 经度: 028-26E, 海拔: 97米

当前天气观测

该预报发布于21分钟前的21:00 UTC
风速11节,风向北转西北
温度 24°C
湿度 57%
气压 1019 hPa
能见度10公里或以上
1500米以下无云,无积雨云

METAR: LRCK 222100Z 33011KT CAVOK 24/15 Q1019 NOSIG

时间: 00:21 (21:21 UTC)

预报

该预报发布于4小时和21分钟前的17:00 UTC
预报有效从22日的 18点(UTC)到 23日的 18点(UTC)
风速12节,风向
能见度10公里或以上
1500米以下无云,无积雨云
几率 40% :
短暂存在
从 23日的 03点(UTC)到 23日的 10点(UTC)
风速16节,风向,有时为26节阵风
成为
从 23日的 11点(UTC)到 23日的 13点(UTC)
风速12节,风向东转东北

TAF: LRCK 221700Z 2218/2318 35012KT CAVOK PROB40 TEMPO 2303/2310 01016G26KT BECMG 2311/2313 07012KT

超过4000个机场的气象观测和天气预报(METAR&TAF报告)。

可查询的气象台以黄色和红色小点在地图上表示。

将鼠标移到小点上方,可查看气象台名称。

然后点击查看天气观测和预报。

如需切换地图:点击带黑十字的绿色按钮放大地图;点击带横线的绿色按钮缩小地图;或者点击绿色箭头查看邻近地区的地图。


METAR-TAF: